createdAt,value
2023-04-14T00:01:00.550Z,40.93
2023-04-14T00:03:30.312Z,41.09
2023-04-14T00:05:59.736Z,41.35
2023-04-14T00:08:29.179Z,41.36
2023-04-14T00:10:58.203Z,41.36
2023-04-14T00:13:28.346Z,41.72
2023-04-14T00:16:02.502Z,41.40
2023-04-14T00:18:35.415Z,41.67
2023-04-14T00:21:05.536Z,41.33
2023-04-14T00:23:36.528Z,40.95
2023-04-14T00:26:07.131Z,40.38
2023-04-14T00:28:35.675Z,39.90
2023-04-14T00:31:06.209Z,38.84
2023-04-14T00:33:36.280Z,37.73
2023-04-14T00:36:07.856Z,37.58
2023-04-14T00:38:36.326Z,36.47
2023-04-14T00:41:04.604Z,35.57
2023-04-14T00:43:36.200Z,35.32
2023-04-14T00:46:08.178Z,34.75
2023-04-14T00:48:39.560Z,34.78
2023-04-14T00:51:09.615Z,35.01
2023-04-14T00:53:43.496Z,34.47
2023-04-14T00:56:13.047Z,34.60
2023-04-14T00:58:43.518Z,34.42
2023-04-14T01:01:16.904Z,34.01
2023-04-14T01:03:45.821Z,33.93
2023-04-14T01:06:14.332Z,33.14
2023-04-14T01:08:44.487Z,33.06
2023-04-14T01:11:28.201Z,33.25
2023-04-14T01:14:27.583Z,32.73
2023-04-14T01:17:06.421Z,32.51
2023-04-14T01:19:56.188Z,32.00
2023-04-14T01:22:32.143Z,32.10
2023-04-14T01:25:10.496Z,32.31
2023-04-14T01:28:32.170Z,31.99
2023-04-14T01:31:18.199Z,32.59
2023-04-14T01:33:56.459Z,32.60
2023-04-14T01:36:32.115Z,32.72
2023-04-14T01:39:06.168Z,33.12
2023-04-14T01:41:39.885Z,33.66
2023-04-14T01:44:12.210Z,34.14
2023-04-14T01:46:43.162Z,34.46
2023-04-14T01:49:15.265Z,34.35
2023-04-14T01:51:46.151Z,34.41
2023-04-14T01:54:18.295Z,34.30
2023-04-14T01:56:50.221Z,34.59
2023-04-14T01:59:19.518Z,34.41
2023-04-14T02:01:50.590Z,34.40
2023-04-14T02:04:26.578Z,34.33
2023-04-14T02:06:59.256Z,34.19
2023-04-14T02:09:31.648Z,34.63
2023-04-14T02:12:03.273Z,34.73
2023-04-14T02:14:33.422Z,34.99
2023-04-14T02:17:03.321Z,34.55
2023-04-14T02:19:37.160Z,34.72
2023-04-14T02:22:08.306Z,35.13
2023-04-14T02:24:37.446Z,35.47
2023-04-14T02:27:18.499Z,35.61
2023-04-14T02:29:54.412Z,35.64
2023-04-14T02:32:29.135Z,35.53
2023-04-14T02:35:06.720Z,35.57
2023-04-14T02:37:39.223Z,35.52
2023-04-14T02:40:15.063Z,35.79
2023-04-14T02:42:54.095Z,35.64
2023-04-14T02:45:30.240Z,35.22
2023-04-14T02:48:06.270Z,35.38
2023-04-14T02:50:36.387Z,35.24
2023-04-14T02:53:18.894Z,35.16
2023-04-14T02:55:51.916Z,35.24
2023-04-14T02:58:22.536Z,34.56
2023-04-14T03:01:25.425Z,34.05
2023-04-14T03:04:12.497Z,33.76
2023-04-14T03:06:44.472Z,34.25
2023-04-14T03:09:20.508Z,34.01
2023-04-14T03:11:50.985Z,34.36
2023-04-14T03:14:24.160Z,34.01
2023-04-14T03:16:54.714Z,33.76
2023-04-14T03:19:29.335Z,33.84
2023-04-14T03:22:02.613Z,33.58
2023-04-14T03:24:35.256Z,33.53
2023-04-14T03:27:16.495Z,33.59
2023-04-14T03:29:52.978Z,33.97
2023-04-14T03:32:28.370Z,33.41
2023-04-14T03:34:59.208Z,33.99
2023-04-14T03:37:37.537Z,33.64
2023-04-14T03:40:14.946Z,33.51
2023-04-14T03:42:52.211Z,33.51
2023-04-14T03:45:23.438Z,33.53
2023-04-14T03:47:58.084Z,33.63
2023-04-14T03:50:32.985Z,33.94
2023-04-14T03:53:06.102Z,33.80
2023-04-14T03:55:40.808Z,33.69
2023-04-14T03:58:14.190Z,33.46
2023-04-14T04:00:46.448Z,33.60
2023-04-14T04:03:16.597Z,33.95
2023-04-14T04:05:48.559Z,33.88
2023-04-14T04:08:18.926Z,33.27
2023-04-14T04:10:48.621Z,33.60
2023-04-14T04:13:22.440Z,33.57
2023-04-14T04:15:52.831Z,33.88
2023-04-14T04:18:26.215Z,33.52
2023-04-14T04:20:59.409Z,33.71
2023-04-14T04:23:34.546Z,33.46
2023-04-14T04:26:03.997Z,33.98
2023-04-14T04:28:40.552Z,34.21
2023-04-14T04:31:11.304Z,34.06
2023-04-14T04:33:41.664Z,34.07
2023-04-14T04:36:15.517Z,34.86
2023-04-14T04:38:47.384Z,34.35
2023-04-14T04:41:25.237Z,34.61
2023-04-14T04:43:56.787Z,34.09
2023-04-14T04:46:52.275Z,33.92
2023-04-14T04:49:28.534Z,33.87
2023-04-14T04:52:04.943Z,34.57
2023-04-14T04:54:36.182Z,34.86
2023-04-14T04:57:05.872Z,34.37
2023-04-14T04:59:38.046Z,34.22
2023-04-14T05:02:08.448Z,33.98
2023-04-14T05:04:38.577Z,34.25
2023-04-14T05:07:11.217Z,33.84
2023-04-14T05:09:40.680Z,34.12
2023-04-14T05:12:11.405Z,34.62
2023-04-14T05:14:41.791Z,34.42
2023-04-14T05:17:09.518Z,34.48
2023-04-14T05:19:39.433Z,34.33
2023-04-14T05:22:09.260Z,34.34
2023-04-14T05:24:40.635Z,34.87
2023-04-14T05:27:14.619Z,34.56
2023-04-14T05:29:44.420Z,34.64
2023-04-14T05:32:14.976Z,34.78
2023-04-14T05:34:47.690Z,34.31
2023-04-14T05:37:19.521Z,33.90
2023-04-14T05:39:50.893Z,34.48
2023-04-14T05:42:18.711Z,34.81
2023-04-14T05:44:48.269Z,34.79
2023-04-14T05:47:20.943Z,34.55
2023-04-14T05:49:49.545Z,34.80
2023-04-14T05:52:18.777Z,34.66
2023-04-14T05:54:47.553Z,34.79
2023-04-14T05:57:19.456Z,38.61
2023-04-14T05:59:48.507Z,40.78
2023-04-14T06:02:20.316Z,37.21
2023-04-14T06:04:52.740Z,36.02
2023-04-14T06:07:22.095Z,35.67
2023-04-14T06:09:56.375Z,35.53
2023-04-14T06:12:25.877Z,35.55
2023-04-14T06:14:56.225Z,35.49
2023-04-14T06:17:29.372Z,35.62
2023-04-14T06:19:57.636Z,35.30
2023-04-14T06:22:31.595Z,35.69
2023-04-14T06:25:01.230Z,35.04
2023-04-14T06:27:31.368Z,35.15
2023-04-14T06:30:01.285Z,34.97
2023-04-14T06:32:30.636Z,34.68
2023-04-14T06:34:59.406Z,34.59
2023-04-14T06:37:28.862Z,34.40
2023-04-14T06:39:57.428Z,34.23
2023-04-14T06:42:27.474Z,34.88
2023-04-14T06:44:59.528Z,35.07
2023-04-14T06:47:28.451Z,35.24
2023-04-14T06:49:58.445Z,35.10
2023-04-14T06:52:26.399Z,35.50
2023-04-14T06:54:56.572Z,35.76
2023-04-14T06:57:29.252Z,36.61
2023-04-14T07:00:00.498Z,36.20
2023-04-14T07:03:34.611Z,36.13
2023-04-14T07:06:22.365Z,35.86
2023-04-14T07:08:52.539Z,35.99
2023-04-14T07:11:25.068Z,36.29
2023-04-14T07:13:55.185Z,36.54
2023-04-14T07:16:25.123Z,36.62
2023-04-14T07:18:55.956Z,36.64
2023-04-14T07:21:26.335Z,36.25
2023-04-14T07:23:55.122Z,36.52
2023-04-14T07:26:23.206Z,37.36
2023-04-14T07:28:53.053Z,36.58
2023-04-14T07:31:23.636Z,36.72
2023-04-14T07:33:54.105Z,36.64
2023-04-14T07:36:22.662Z,36.44
2023-04-14T07:38:54.424Z,36.27
2023-04-14T07:41:22.624Z,36.42
2023-04-14T07:43:51.159Z,35.95
2023-04-14T07:46:22.631Z,35.76
2023-04-14T07:48:54.720Z,36.00
2023-04-14T07:51:23.254Z,36.06
2023-04-14T07:53:54.061Z,35.57
2023-04-14T07:56:23.462Z,36.09
2023-04-14T07:58:54.055Z,36.19
2023-04-14T08:01:23.404Z,35.91
2023-04-14T08:03:54.284Z,35.81
2023-04-14T08:06:23.200Z,35.96
2023-04-14T08:08:55.182Z,36.05
2023-04-14T08:11:25.397Z,36.16
2023-04-14T08:13:54.281Z,36.93
2023-04-14T08:16:23.004Z,36.49
2023-04-14T08:18:56.518Z,36.88
2023-04-14T08:21:28.138Z,36.20
2023-04-14T08:23:58.378Z,36.75
2023-04-14T08:26:28.982Z,36.62
2023-04-14T08:29:01.466Z,36.72
2023-04-14T08:31:35.134Z,36.91
2023-04-14T08:34:06.098Z,36.60
2023-04-14T08:36:36.409Z,36.63
2023-04-14T08:39:08.247Z,36.42
2023-04-14T08:41:39.441Z,36.51
2023-04-14T08:44:10.786Z,36.22
2023-04-14T08:46:45.176Z,35.92
2023-04-14T08:49:28.974Z,35.73
2023-04-14T08:52:03.157Z,35.94
2023-04-14T08:54:32.155Z,35.76
2023-04-14T08:57:04.805Z,35.37
2023-04-14T08:59:35.027Z,34.87
2023-04-14T09:02:08.235Z,34.61
2023-04-14T09:04:38.394Z,34.10
2023-04-14T09:07:08.028Z,34.36
2023-04-14T09:09:38.006Z,34.31
2023-04-14T09:12:07.671Z,33.92
2023-04-14T09:14:41.119Z,33.46
2023-04-14T09:17:11.135Z,33.91
2023-04-14T09:20:38.138Z,33.66
2023-04-14T09:22:29.693Z,33.53
2023-04-14T09:25:00.095Z,33.72
2023-04-14T09:27:29.260Z,33.97
2023-04-14T09:30:01.449Z,33.85
2023-04-14T09:32:30.080Z,33.62
2023-04-14T09:35:00.618Z,34.00
2023-04-14T09:37:44.023Z,33.57
2023-04-14T09:40:29.264Z,33.47
2023-04-14T09:43:02.130Z,34.48
2023-04-14T09:45:46.398Z,34.64
2023-04-14T09:48:14.772Z,34.36
2023-04-14T09:51:07.697Z,33.76
2023-04-14T09:53:39.136Z,33.77
2023-04-14T09:56:12.179Z,33.94
2023-04-14T09:58:45.061Z,33.62
2023-04-14T10:01:19.272Z,33.36
2023-04-14T10:03:51.263Z,33.53
2023-04-14T10:06:25.382Z,34.22
2023-04-14T10:08:57.114Z,34.66
2023-04-14T10:11:38.154Z,34.65
2023-04-14T10:14:10.097Z,34.58
2023-04-14T10:16:39.711Z,34.76
2023-04-14T10:19:10.428Z,34.76
2023-04-14T10:21:41.129Z,34.48
2023-04-14T10:24:14.923Z,34.92
2023-04-14T10:26:50.285Z,34.53
2023-04-14T10:29:23.466Z,34.23
2023-04-14T10:31:58.940Z,34.21
2023-04-14T10:34:35.406Z,34.07
2023-04-14T10:37:19.207Z,35.96
2023-04-14T10:39:56.499Z,34.54
2023-04-14T10:42:25.368Z,34.33
2023-04-14T10:45:06.375Z,34.01
2023-04-14T10:47:38.026Z,34.35
2023-04-14T10:50:26.232Z,34.02
2023-04-14T10:53:00.094Z,34.04
2023-04-14T10:55:52.094Z,34.14
2023-04-14T10:58:31.137Z,34.04
2023-04-14T11:01:00.493Z,33.99
2023-04-14T11:03:32.746Z,34.03
2023-04-14T11:06:04.004Z,33.72
2023-04-14T11:08:37.145Z,33.78
2023-04-14T11:11:09.201Z,33.74
2023-04-14T11:13:39.311Z,33.94
2023-04-14T11:16:11.233Z,34.15
2023-04-14T11:18:46.580Z,34.03
2023-04-14T11:21:19.143Z,33.84
2023-04-14T11:23:49.435Z,33.65
2023-04-14T11:26:18.360Z,33.78
2023-04-14T11:28:49.226Z,33.90
2023-04-14T11:31:22.527Z,33.86
2023-04-14T11:33:54.177Z,34.14
2023-04-14T11:36:26.156Z,34.22
2023-04-14T11:39:01.524Z,34.34
2023-04-14T11:41:31.600Z,34.48
2023-04-14T11:43:59.764Z,34.29
2023-04-14T11:46:28.552Z,34.58
2023-04-14T11:48:58.308Z,34.89
2023-04-14T11:51:35.168Z,34.68
2023-04-14T11:54:07.200Z,34.90
2023-04-14T11:56:42.168Z,35.20
2023-04-14T11:59:13.287Z,35.14
2023-04-14T12:01:43.261Z,35.30
2023-04-14T12:04:13.560Z,35.51
2023-04-14T12:06:46.092Z,35.32
2023-04-14T12:09:15.785Z,35.48
2023-04-14T12:11:55.497Z,35.06
2023-04-14T12:14:26.188Z,35.18
2023-04-14T12:16:58.130Z,35.13
2023-04-14T12:19:30.677Z,35.26
2023-04-14T12:21:59.675Z,35.37
2023-04-14T12:24:40.592Z,35.81
2023-04-14T12:27:14.062Z,35.75
2023-04-14T12:29:48.143Z,35.78
2023-04-14T12:32:22.598Z,35.93
2023-04-14T12:35:01.761Z,35.94
2023-04-14T12:37:29.722Z,36.22
2023-04-14T12:40:01.234Z,36.33
2023-04-14T12:42:46.226Z,36.36
2023-04-14T12:45:17.696Z,37.10
2023-04-14T12:47:55.484Z,37.84
2023-04-14T12:50:30.745Z,36.60
2023-04-14T12:53:05.213Z,36.80
2023-04-14T12:55:38.194Z,39.26
2023-04-14T12:58:07.111Z,38.32
2023-04-14T13:00:38.460Z,37.80
2023-04-14T13:03:10.533Z,37.44
2023-04-14T13:05:39.338Z,37.85
2023-04-14T13:08:09.559Z,37.88
2023-04-14T13:10:37.386Z,37.36
2023-04-14T13:13:08.289Z,37.24
2023-04-14T13:16:13.470Z,37.20
2023-04-14T13:18:28.403Z,36.65
2023-04-14T13:20:59.933Z,36.92
2023-04-14T13:23:29.915Z,36.68
2023-04-14T13:25:59.418Z,36.29
2023-04-14T13:28:31.613Z,36.76
2023-04-14T13:31:01.132Z,36.52
2023-04-14T13:33:30.193Z,36.13
2023-04-14T13:36:01.136Z,35.45
2023-04-14T13:38:32.469Z,37.14
2023-04-14T13:41:04.185Z,34.87
2023-04-14T13:43:33.443Z,35.85
2023-04-14T13:46:04.294Z,35.48
2023-04-14T13:48:34.156Z,35.89
2023-04-14T13:51:02.871Z,35.70
2023-04-14T13:53:33.603Z,36.10
2023-04-14T13:56:02.607Z,36.01
2023-04-14T13:58:38.703Z,35.98
2023-04-14T14:01:14.261Z,35.71
2023-04-14T14:03:44.116Z,35.82
2023-04-14T14:06:16.112Z,35.89
2023-04-14T14:08:45.681Z,36.26
2023-04-14T14:11:15.189Z,36.07
2023-04-14T14:13:43.118Z,36.27
2023-04-14T14:18:43.497Z,36.42
2023-04-14T14:21:12.426Z,36.07
2023-04-14T14:23:43.310Z,36.83
2023-04-14T14:26:13.323Z,36.39
2023-04-14T14:28:47.153Z,36.42
2023-04-14T14:31:18.029Z,36.53
2023-04-14T14:33:48.761Z,37.26
2023-04-14T14:36:20.503Z,37.43
2023-04-14T14:38:50.157Z,38.09
2023-04-14T14:41:21.364Z,38.38
2023-04-14T14:43:51.486Z,38.77
2023-04-14T14:46:24.247Z,38.77
2023-04-14T14:48:55.187Z,38.50
2023-04-14T14:51:25.927Z,38.39
2023-04-14T14:54:04.258Z,38.63
2023-04-14T14:56:41.301Z,38.85
2023-04-14T14:59:10.408Z,38.90
2023-04-14T15:01:40.686Z,39.36
2023-04-14T15:04:13.367Z,38.80
2023-04-14T15:06:42.380Z,38.69
2023-04-14T15:09:11.460Z,39.02
2023-04-14T15:11:39.588Z,38.47
2023-04-14T15:14:09.445Z,38.22
2023-04-14T15:16:38.760Z,38.13
2023-04-14T15:19:08.466Z,39.18
2023-04-14T15:21:37.561Z,38.58
2023-04-14T15:24:06.024Z,38.63
2023-04-14T15:26:36.867Z,38.83
2023-04-14T15:29:06.642Z,39.08
2023-04-14T15:31:37.405Z,38.84
2023-04-14T15:34:09.187Z,38.64
2023-04-14T15:36:40.963Z,38.67
2023-04-14T15:39:09.418Z,38.43
2023-04-14T15:41:37.155Z,38.40
2023-04-14T15:44:04.904Z,38.02
2023-04-14T15:46:32.800Z,37.91
2023-04-14T15:49:00.511Z,38.02
2023-04-14T15:51:28.252Z,37.48
2023-04-14T15:53:56.266Z,37.91
2023-04-14T15:56:24.712Z,37.27
2023-04-14T15:58:52.653Z,37.36
2023-04-14T16:01:21.071Z,37.21
2023-04-14T16:03:51.272Z,37.68
2023-04-14T16:06:20.647Z,38.09
2023-04-14T16:08:48.484Z,38.06
2023-04-14T16:11:16.741Z,37.97
2023-04-14T16:13:45.753Z,38.52
2023-04-14T16:16:15.344Z,38.82
2023-04-14T16:18:44.216Z,38.93
2023-04-14T16:21:12.170Z,39.43
2023-04-14T16:23:41.458Z,40.01
2023-04-14T16:26:09.243Z,40.18
2023-04-14T16:28:36.959Z,40.12
2023-04-14T16:31:05.823Z,40.67
2023-04-14T16:33:35.026Z,40.96
2023-04-14T16:36:04.440Z,40.60
2023-04-14T16:38:33.182Z,40.67
2023-04-14T16:41:04.467Z,40.88
2023-04-14T16:43:33.027Z,40.89
2023-04-14T16:46:04.243Z,40.55
2023-04-14T16:48:32.815Z,40.52
2023-04-14T16:51:09.386Z,40.35
2023-04-14T16:53:39.520Z,40.93
2023-04-14T16:56:08.724Z,39.95
2023-04-14T16:58:38.296Z,40.64
2023-04-14T17:01:06.982Z,40.17
2023-04-14T17:03:35.648Z,40.02
2023-04-14T17:06:03.962Z,40.13
2023-04-14T17:08:34.055Z,39.99
2023-04-14T17:11:02.426Z,40.09
2023-04-14T17:13:30.349Z,39.77
2023-04-14T17:16:07.734Z,39.92
2023-04-14T17:18:38.320Z,39.42
2023-04-14T17:21:07.495Z,39.32
2023-04-14T17:23:37.628Z,39.23
2023-04-14T17:26:06.015Z,39.32
2023-04-14T17:28:35.146Z,39.17
2023-04-14T17:31:10.409Z,39.57
2023-04-14T17:33:43.876Z,39.49
2023-04-14T17:36:16.717Z,38.78
2023-04-14T17:38:45.928Z,38.65
2023-04-14T17:41:14.133Z,38.86
2023-04-14T17:43:41.953Z,38.94
2023-04-14T17:46:10.514Z,39.23
2023-04-14T17:48:38.676Z,38.97
2023-04-14T17:51:06.789Z,38.94
2023-04-14T17:53:34.662Z,38.86
2023-04-14T17:56:03.563Z,38.66
2023-04-14T17:58:31.265Z,38.93
2023-04-14T18:00:59.443Z,38.89
2023-04-14T18:03:27.590Z,39.57
2023-04-14T18:05:55.695Z,39.49
2023-04-14T18:08:23.552Z,39.72
2023-04-14T18:10:51.292Z,39.69
2023-04-14T18:13:19.369Z,39.41
2023-04-14T18:15:49.658Z,39.15
2023-04-14T18:18:17.919Z,38.35
2023-04-14T18:20:49.032Z,38.17
2023-04-14T18:23:16.699Z,37.96
2023-04-14T18:28:15.054Z,37.65
2023-04-14T18:30:43.864Z,37.43
2023-04-14T18:33:11.612Z,37.33
2023-04-14T18:35:39.501Z,36.80
2023-04-14T18:38:07.650Z,37.48
2023-04-14T18:40:38.494Z,38.63
2023-04-14T18:43:06.057Z,39.64
2023-04-14T18:45:33.888Z,39.09
2023-04-14T18:48:01.888Z,39.13
2023-04-14T18:50:29.694Z,38.75
2023-04-14T18:52:57.988Z,38.27
2023-04-14T18:55:25.752Z,38.02
2023-04-14T18:57:56.723Z,37.76
2023-04-14T19:00:25.346Z,37.59
2023-04-14T19:02:53.591Z,37.77
2023-04-14T19:05:21.909Z,38.42
2023-04-14T19:07:49.714Z,37.77
2023-04-14T19:10:18.390Z,37.67
2023-04-14T19:12:46.428Z,37.75
2023-04-14T19:15:14.532Z,38.03
2023-04-14T19:17:42.224Z,38.46
2023-04-14T19:20:10.488Z,38.30
2023-04-14T19:22:38.972Z,38.47
2023-04-14T19:25:07.263Z,39.06
2023-04-14T19:27:36.268Z,39.49
2023-04-14T19:30:05.368Z,39.71
2023-04-14T19:32:36.285Z,39.45
2023-04-14T19:35:06.667Z,40.03
2023-04-14T19:37:35.048Z,40.20
2023-04-14T19:40:08.297Z,39.69
2023-04-14T19:42:35.884Z,39.83
2023-04-14T19:45:03.815Z,39.81
2023-04-14T19:47:32.246Z,39.85
2023-04-14T19:50:00.583Z,39.43
2023-04-14T19:52:28.450Z,39.66
2023-04-14T19:54:57.372Z,39.80
2023-04-14T19:57:25.190Z,38.98
2023-04-14T19:59:52.798Z,39.10
2023-04-14T20:02:20.758Z,38.22
2023-04-14T20:04:57.522Z,38.58
2023-04-14T20:07:26.432Z,38.81
2023-04-14T20:09:55.009Z,37.75
2023-04-14T20:12:23.216Z,37.58
2023-04-14T20:14:54.122Z,37.47
2023-04-14T20:17:23.470Z,37.11
2023-04-14T20:19:51.440Z,36.53
2023-04-14T20:22:19.910Z,36.58
2023-04-14T20:24:47.805Z,36.21
2023-04-14T20:27:15.623Z,36.76
2023-04-14T20:29:43.565Z,36.43
2023-04-14T20:32:11.728Z,36.55
2023-04-14T20:34:39.695Z,35.45
2023-04-14T20:37:07.498Z,35.58
2023-04-14T20:39:35.310Z,35.46
2023-04-14T20:42:03.102Z,35.45
2023-04-14T20:44:33.048Z,35.87
2023-04-14T20:47:01.074Z,35.48
2023-04-14T20:49:29.710Z,35.07
2023-04-14T20:51:58.618Z,35.21
2023-04-14T20:54:27.998Z,35.15
2023-04-14T20:56:58.164Z,34.72
2023-04-14T20:59:26.454Z,34.24
2023-04-14T21:01:54.335Z,34.07
2023-04-14T21:04:22.587Z,34.04
2023-04-14T21:06:50.625Z,34.40
2023-04-14T21:09:19.488Z,35.12
2023-04-14T21:11:47.247Z,35.53
2023-04-14T21:15:40.283Z,34.97
2023-04-14T21:17:02.921Z,35.17
2023-04-14T21:19:31.274Z,35.62
2023-04-14T21:21:59.138Z,35.22
2023-04-14T21:24:27.588Z,35.31
2023-04-14T21:26:55.428Z,35.72
2023-04-14T21:29:23.617Z,35.06
2023-04-14T21:31:51.465Z,34.64
2023-04-14T21:34:19.522Z,34.92
2023-04-14T21:36:47.618Z,35.27
2023-04-14T21:39:15.510Z,35.53
2023-04-14T21:41:43.276Z,34.97
2023-04-14T21:44:11.441Z,35.37
2023-04-14T21:46:39.344Z,35.79
2023-04-14T21:49:07.448Z,36.22
2023-04-14T21:51:35.212Z,36.91
2023-04-14T21:54:03.253Z,37.54
2023-04-14T21:56:30.885Z,38.44
2023-04-14T21:58:58.698Z,39.25
2023-04-14T22:01:27.580Z,39.76
2023-04-14T22:03:56.158Z,40.67
2023-04-14T22:06:25.235Z,41.41
2023-04-14T22:08:52.806Z,41.21
2023-04-14T22:11:47.509Z,42.17
2023-04-14T22:14:15.572Z,42.36
2023-04-14T22:16:44.979Z,43.11
2023-04-14T22:19:12.753Z,43.27
2023-04-14T22:21:40.610Z,43.11
2023-04-14T22:24:08.997Z,43.70
2023-04-14T22:26:36.966Z,44.04
2023-04-14T22:29:04.963Z,44.29
2023-04-14T22:31:32.981Z,44.31
2023-04-14T22:34:01.319Z,44.48
2023-04-14T22:36:29.275Z,45.12
2023-04-14T22:38:57.196Z,45.35
2023-04-14T22:41:25.075Z,46.23
2023-04-14T22:43:53.009Z,45.72
2023-04-14T22:46:20.800Z,46.50
2023-04-14T22:48:48.949Z,46.14
2023-04-14T22:51:17.816Z,45.76
2023-04-14T22:53:45.791Z,46.18
2023-04-14T22:56:14.846Z,46.86
2023-04-14T22:58:42.789Z,46.53
2023-04-14T23:01:21.356Z,46.35
2023-04-14T23:03:52.844Z,46.80
2023-04-14T23:06:21.570Z,46.48
2023-04-14T23:08:50.565Z,45.96
2023-04-14T23:11:20.954Z,46.05
2023-04-14T23:13:50.072Z,46.09
2023-04-14T23:16:20.204Z,46.29
2023-04-14T23:18:52.716Z,46.11
2023-04-14T23:21:25.097Z,45.89
2023-04-14T23:23:52.912Z,46.11
2023-04-14T23:26:22.073Z,45.79
2023-04-14T23:28:49.904Z,46.10
2023-04-14T23:31:18.157Z,45.75
2023-04-14T23:33:48.700Z,45.69
2023-04-14T23:36:16.883Z,45.66
2023-04-14T23:38:45.219Z,45.68
2023-04-14T23:41:13.293Z,45.39
2023-04-14T23:43:41.293Z,45.59
2023-04-14T23:46:09.069Z,45.42
2023-04-14T23:48:36.831Z,45.03
2023-04-14T23:51:18.558Z,45.07
2023-04-14T23:53:49.929Z,45.23
2023-04-14T23:56:17.820Z,44.88
2023-04-14T23:58:45.742Z,45.01
